Time;durP1;ratioP1;P1;durP2;ratioP2;P2;SDS_P1;SDS_P2;PMS_P1;PMS_P2;Temp;Humidity;BMP_temperature;BMP_pressure;BME280_temperature;BME280_humidity;BME280_pressure;Samples;Min_cycle;Max_cycle;Signal;HPM_P1;HPM_P2
2022/03/02 00:01:41;;;;;;;278.97;96.87;;;;;;;-5.82;67.57;100101.91;2290261;78;21364;-85
2022/03/02 00:04:42;;;;;;;372.40;94.57;;;;;;;-5.87;67.53;100103.11;2291103;77;21075;-85
2022/03/02 00:07:42;;;;;;;275.23;90.63;;;;;;;-5.92;67.65;100096.73;2291505;78;20956;-85
2022/03/02 00:10:43;;;;;;;260.77;91.93;;;;;;;-5.95;67.73;100092.25;2291550;78;21034;-85
2022/03/02 00:13:44;;;;;;;277.53;89.27;;;;;;;-5.97;67.83;100086.49;2292164;78;20951;-85
2022/03/02 00:16:44;;;;;;;303.53;98.90;;;;;;;-6.00;67.84;100084.55;2292033;78;21012;-86
2022/03/02 00:19:45;;;;;;;279.10;97.50;;;;;;;-6.02;67.98;100087.33;2291893;78;20921;-85
2022/03/02 00:22:46;;;;;;;264.93;94.27;;;;;;;-6.01;67.92;100086.95;2292011;78;20873;-86
2022/03/02 00:25:46;;;;;;;285.00;97.70;;;;;;;-6.03;68.07;100082.98;2291830;78;20904;-86
2022/03/02 00:28:46;;;;;;;236.13;85.43;;;;;;;-6.03;68.15;100075.73;2291765;78;21055;-86
2022/03/02 00:31:47;;;;;;;277.20;95.87;;;;;;;-6.02;68.08;100073.34;2291955;78;20907;-86
2022/03/02 00:34:47;;;;;;;262.80;94.50;;;;;;;-6.00;68.41;100079.84;2291905;78;20924;-86
2022/03/02 00:37:48;;;;;;;274.37;91.03;;;;;;;-5.97;68.36;100072.14;2291948;78;20901;-85
2022/03/02 00:40:48;;;;;;;275.07;91.73;;;;;;;-6.03;67.94;100077.02;2291786;78;20916;-86
2022/03/02 00:43:49;;;;;;;275.67;94.43;;;;;;;-6.08;67.74;100076.91;2291313;78;20893;-86
2022/03/02 00:46:49;;;;;;;248.50;85.77;;;;;;;-6.11;67.74;100063.53;2291441;78;21003;-85
2022/03/02 00:49:50;;;;;;;275.97;92.80;;;;;;;-6.11;67.71;100069.89;2291760;78;20990;-85
2022/03/02 00:52:50;;;;;;;281.80;90.97;;;;;;;-6.14;68.18;100061.59;2291086;78;20994;-85
2022/03/02 00:55:51;;;;;;;240.80;87.83;;;;;;;-6.14;68.33;100069.59;2290759;78;21299;-85
2022/03/02 00:58:51;;;;;;;234.80;87.07;;;;;;;-6.14;68.39;100061.97;2290166;78;21093;-85
2022/03/02 01:01:52;;;;;;;229.73;83.37;;;;;;;-6.16;68.48;100053.30;2290253;78;20948;-85
2022/03/02 01:04:53;;;;;;;226.83;78.67;;;;;;;-6.18;68.50;100054.80;2290082;78;21289;-84
2022/03/02 01:07:53;;;;;;;218.23;79.63;;;;;;;-6.19;68.58;100058.09;2290824;78;21014;-85
2022/03/02 01:10:54;;;;;;;220.67;78.07;;;;;;;-6.21;68.44;100050.70;2291147;78;21343;-84
2022/03/02 01:13:54;;;;;;;218.70;77.67;;;;;;;-6.24;68.49;100044.94;2291473;78;20940;-84
2022/03/02 01:16:55;;;;;;;200.47;75.00;;;;;;;-6.24;68.58;100046.59;2290385;77;20956;-85
2022/03/02 01:19:55;;;;;;;213.83;77.03;;;;;;;-6.17;69.08;100044.78;2290336;78;20951;-83
2022/03/02 01:22:56;;;;;;;203.17;76.97;;;;;;;-6.20;68.66;100031.78;2291533;78;20905;-84
2022/03/02 01:25:56;;;;;;;213.23;74.83;;;;;;;-6.24;68.72;100033.51;2291138;78;20967;-84
2022/03/02 01:28:57;;;;;;;209.57;74.63;;;;;;;-6.24;68.69;100038.97;2291203;78;21331;-84
2022/03/02 01:31:57;;;;;;;209.10;74.47;;;;;;;-6.27;68.78;100033.22;2291472;78;20963;-84
2022/03/02 01:34:58;;;;;;;211.77;77.93;;;;;;;-6.28;68.84;100038.15;2291568;78;20931;-84
2022/03/02 01:38:01;;;;;;;220.47;76.23;;;;;;;-6.30;68.73;100037.11;2291101;78;21005;-84
2022/03/02 01:41:01;;;;;;;243.17;81.43;;;;;;;-6.29;68.40;100038.90;2289926;78;21003;-84
2022/03/02 01:44:02;;;;;;;215.87;73.63;;;;;;;-6.33;68.29;100039.36;2289954;78;20979;-84
2022/03/02 01:47:02;;;;;;;221.67;76.77;;;;;;;-6.37;68.34;100028.38;2288331;78;21009;-84
2022/03/02 01:50:02;;;;;;;195.53;72.53;;;;;;;-6.37;68.63;100020.75;2280376;78;20942;-85
2022/03/02 01:53:03;;;;;;;223.00;80.63;;;;;;;-6.39;68.61;100025.69;2280665;78;21005;-84
2022/03/02 01:56:03;;;;;;;226.93;80.63;;;;;;;-6.48;68.35;100025.70;2281943;78;20919;-84
2022/03/02 01:59:04;;;;;;;248.40;86.53;;;;;;;-6.54;68.43;100021.30;2278413;78;20962;-85
2022/03/02 02:02:07;;;;;;;231.43;81.30;;;;;;;-6.56;68.74;100018.98;2276409;78;20962;-85
2022/03/02 02:05:08;;;;;;;221.37;80.27;;;;;;;-6.53;69.01;100010.39;2281461;78;20973;-84
2022/03/02 02:08:08;;;;;;;222.17;79.90;;;;;;;-6.51;69.01;100016.89;2281836;78;20899;-84
2022/03/02 02:11:09;;;;;;;234.47;84.37;;;;;;;-6.52;69.02;100013.45;2282210;78;21392;-85
2022/03/02 02:14:09;;;;;;;216.00;78.13;;;;;;;-6.56;69.00;100007.55;2282143;78;20950;-85
2022/03/02 02:17:10;;;;;;;231.03;79.23;;;;;;;-6.56;69.10;100003.75;2282464;78;20950;-85
2022/03/02 02:20:11;;;;;;;214.07;78.63;;;;;;;-6.55;68.91;100003.00;2282578;78;20982;-85
2022/03/02 02:23:11;;;;;;;204.50;74.93;;;;;;;-6.57;69.02;100003.22;2282594;78;20890;-85
2022/03/02 02:26:12;;;;;;;260.67;80.20;;;;;;;-6.56;69.17;99998.66;2282387;78;20933;-85
2022/03/02 02:29:12;;;;;;;242.17;84.20;;;;;;;-6.56;68.93;99997.39;2282323;78;20934;-85
2022/03/02 02:32:13;;;;;;;227.63;78.97;;;;;;;-6.61;68.32;99996.05;2282520;78;21467;-85
2022/03/02 02:35:13;;;;;;;209.00;76.53;;;;;;;-6.65;68.42;99995.23;2282193;78;20961;-85
2022/03/02 02:38:14;;;;;;;198.33;75.07;;;;;;;-6.68;68.58;99995.31;2282634;78;21000;-85
2022/03/02 02:41:18;;;;;;;328.83;84.47;;;;;;;-6.72;68.81;99990.31;2282694;78;20949;-85
2022/03/02 02:44:19;;;;;;;198.28;69.70;;;;;;;-6.73;68.98;99986.36;2282185;78;21008;-85
2022/03/02 02:47:19;;;;;;;182.83;68.13;;;;;;;-6.72;68.87;99983.97;2276682;77;20984;-85
2022/03/02 02:50:20;;;;;;;179.57;69.10;;;;;;;-6.72;69.10;99980.16;2249197;79;20924;-85
2022/03/02 02:53:21;;;;;;;195.67;68.00;;;;;;;-6.67;69.28;99984.03;2249168;79;20960;-85
2022/03/02 02:56:22;;;;;;;302.33;108.30;;;;;;;-6.67;68.57;99987.84;2249541;78;20947;-85
2022/03/02 02:59:24;;;;;;;221.33;83.90;;;;;;;-6.67;69.02;99986.58;2250256;79;21328;-82
2022/03/02 03:02:24;;;;;;;301.87;91.67;;;;;;;-6.68;68.98;99987.33;2250098;79;20904;-84
2022/03/02 03:05:25;;;;;;;209.00;73.97;;;;;;;-6.66;69.75;99988.73;2250129;79;20987;-85
2022/03/02 03:08:29;;;;;;;187.60;69.60;;;;;;;-6.62;69.74;99992.99;2250169;79;20987;-84
2022/03/02 03:11:30;;;;;;;237.27;75.20;;;;;;;-6.70;68.95;99990.09;2250165;79;20916;-84
2022/03/02 03:14:30;;;;;;;217.70;82.20;;;;;;;-6.81;68.95;99981.80;2250829;79;20979;-85
2022/03/02 03:17:31;;;;;;;305.17;98.10;;;;;;;-6.84;69.07;99982.78;2250573;79;20947;-85
2022/03/02 03:20:32;;;;;;;248.57;91.87;;;;;;;-6.88;69.11;99976.88;2250831;79;20924;-84
2022/03/02 03:23:34;;;;;;;256.63;85.90;;;;;;;-6.92;68.89;99979.88;2250389;79;21158;-85
2022/03/02 03:26:37;;;;;;;215.53;81.77;;;;;;;-6.93;68.60;99974.27;2251164;79;20996;-86
2022/03/02 03:29:37;;;;;;;360.70;89.57;;;;;;;-6.96;68.29;99973.56;2250050;79;20983;-85
2022/03/02 03:32:40;;;;;;;206.03;74.77;;;;;;;-7.00;68.72;99966.39;2228115;79;20987;-85
2022/03/02 03:35:40;;;;;;;207.60;79.27;;;;;;;-7.00;68.45;99964.23;2249009;78;20947;-85
2022/03/02 03:38:41;;;;;;;225.60;85.27;;;;;;;-7.04;68.44;99956.69;2249089;79;20947;-84
2022/03/02 03:41:41;;;;;;;220.13;76.23;;;;;;;-7.04;68.50;99959.23;2248480;78;20963;-81
2022/03/02 03:44:42;;;;;;;214.30;75.83;;;;;;;-7.04;68.76;99960.50;2248186;78;21010;-85
2022/03/02 03:47:43;;;;;;;217.80;75.30;;;;;;;-7.03;69.04;99956.32;2258929;78;20991;-86
2022/03/02 03:50:44;;;;;;;190.90;71.93;;;;;;;-7.04;68.82;99958.34;2292928;78;20975;-85
2022/03/02 03:53:45;;;;;;;186.50;69.37;;;;;;;-7.06;68.67;99963.27;2292945;78;21039;-85
2022/03/02 03:56:45;;;;;;;184.53;69.60;;;;;;;-7.08;68.88;99954.61;2293401;78;20900;-85
2022/03/02 03:59:46;;;;;;;183.43;67.40;;;;;;;-7.09;68.84;99951.55;2294053;77;21047;-84
2022/03/02 04:02:46;;;;;;;225.83;71.40;;;;;;;-7.11;68.62;99950.13;2297678;77;20960;-85
2022/03/02 04:05:47;;;;;;;174.00;65.13;;;;;;;-7.12;68.98;99948.70;2290817;77;21042;-86
2022/03/02 04:08:47;;;;;;;171.37;64.37;;;;;;;-7.12;68.67;99951.24;2290018;78;20955;-85
2022/03/02 04:11:48;;;;;;;155.13;59.20;;;;;;;-7.12;68.69;99951.24;2292189;78;20943;-81
2022/03/02 04:14:48;;;;;;;205.33;65.60;;;;;;;-7.16;68.71;99946.24;2292118;78;21280;-85
2022/03/02 04:17:49;;;;;;;181.80;66.37;;;;;;;-7.15;69.02;99940.80;2292429;78;20959;-86
2022/03/02 04:20:51;;;;;;;178.40;66.53;;;;;;;-7.16;68.70;99939.00;2291889;78;20960;-85
2022/03/02 04:23:51;;;;;;;156.77;60.13;;;;;;;-7.19;68.73;99939.97;2291749;78;20947;-85
2022/03/02 04:26:52;;;;;;;1247.43;191.77;;;;;;;-7.25;68.54;99933.92;2291189;78;20889;-83
2022/03/02 04:29:52;;;;;;;322.43;86.37;;;;;;;-7.26;68.64;99937.58;2291165;78;21050;-85
2022/03/02 04:32:53;;;;;;;190.50;65.00;;;;;;;-7.28;68.71;99933.63;2290845;78;20998;-83
2022/03/02 04:35:54;;;;;;;190.93;68.57;;;;;;;-7.21;69.25;99924.60;2291028;78;20994;-84
2022/03/02 04:38:54;;;;;;;206.00;73.07;;;;;;;-7.21;68.64;99930.94;2291036;78;20896;-84
2022/03/02 04:41:55;;;;;;;203.30;69.63;;;;;;;-7.28;68.24;99930.19;2290795;78;20912;-84
2022/03/02 04:44:55;;;;;;;212.03;67.63;;;;;;;-7.22;68.87;99930.42;2291419;78;20897;-85
2022/03/02 04:47:56;;;;;;;187.20;65.70;;;;;;;-7.06;75.90;99936.61;2289549;78;20988;-84
2022/03/02 04:50:56;;;;;;;196.97;68.57;;;;;;;-6.81;70.70;99929.39;2289622;78;20939;-85
2022/03/02 04:53:57;;;;;;;178.63;65.43;;;;;;;-6.87;68.46;99924.98;2288693;78;20959;-83
2022/03/02 04:56:57;;;;;;;511.47;88.23;;;;;;;-7.04;68.20;99926.61;2288295;78;21066;-84
2022/03/02 04:59:58;;;;;;;216.17;67.20;;;;;;;-7.13;68.48;99926.61;2289658;78;20967;-84
2022/03/02 05:02:59;;;;;;;169.07;66.90;;;;;;;-7.15;68.42;99920.13;2289991;78;20975;-84
2022/03/02 05:05:59;;;;;;;160.77;57.13;;;;;;;-7.22;68.12;99924.45;2289992;78;21011;-83
2022/03/02 05:09:00;;;;;;;142.17;54.73;;;;;;;-7.31;68.24;99918.11;2290335;78;21035;-84
2022/03/02 05:12:02;;;;;;;143.07;53.00;;;;;;;-7.35;68.32;99924.89;2290938;78;20940;-83
2022/03/02 05:15:03;;;;;;;225.03;52.20;;;;;;;-7.39;68.17;99917.73;2291260;78;20996;-84
2022/03/02 05:18:05;;;;;;;132.03;46.70;;;;;;;-7.43;68.27;99921.98;2291202;78;21351;-83
2022/03/02 05:21:06;;;;;;;162.57;54.37;;;;;;;-7.45;68.50;99918.39;2290353;78;20940;-84
2022/03/02 05:24:07;;;;;;;141.40;53.13;;;;;;;-7.46;68.26;99917.50;2289432;78;21692;-85
2022/03/02 05:27:07;;;;;;;146.63;50.97;;;;;;;-7.45;68.50;99918.39;2290277;78;21308;-85
2022/03/02 05:30:08;;;;;;;137.10;52.17;;;;;;;-7.47;68.44;99915.70;2288827;78;21682;-84
2022/03/02 05:33:08;;;;;;;175.17;53.93;;;;;;;-7.44;68.14;99910.94;2290301;78;20991;-85
2022/03/02 05:36:09;;;;;;;152.33;48.93;;;;;;;-7.42;68.59;99913.25;2290766;78;21006;-85
2022/03/02 05:39:12;;;;;;;136.87;49.47;;;;;;;-7.41;68.36;99914.15;2289228;78;21782;-85
2022/03/02 05:42:12;;;;;;;165.40;54.20;;;;;;;-7.37;68.27;99912.80;2289374;78;21006;-85
2022/03/02 05:45:13;;;;;;;147.40;51.83;;;;;;;-7.34;68.32;99912.73;2289133;78;21394;-81
2022/03/02 05:51:17;;;;;;;139.03;49.70;;;;;;;-7.17;68.68;99915.27;2257160;78;21025;-86
2022/03/02 05:54:17;;;;;;;154.43;56.30;;;;;;;-7.12;68.26;99917.88;2279225;78;21001;-85
2022/03/02 05:57:18;;;;;;;160.63;57.47;;;;;;;-7.13;67.91;99921.17;2278518;78;21000;-85
2022/03/02 06:00:19;;;;;;;147.50;54.63;;;;;;;-7.10;67.96;99919.30;2279143;78;21420;-85
2022/03/02 06:03:20;;;;;;;145.57;51.47;;;;;;;-7.09;68.07;99915.64;2278978;78;20985;-85
2022/03/02 06:06:21;;;;;;;134.43;52.27;;;;;;;-7.03;68.19;99915.34;2278941;78;21013;-84
2022/03/02 06:09:22;;;;;;;147.43;56.63;;;;;;;-6.88;68.45;99921.03;2279874;78;20965;-83
2022/03/02 06:12:22;;;;;;;144.50;58.70;;;;;;;-6.72;68.55;99924.30;2279803;78;21020;-83
2022/03/02 06:15:23;;;;;;;369.93;79.10;;;;;;;-6.56;68.60;99916.12;2258374;78;20977;-83
2022/03/02 06:18:24;;;;;;;157.83;65.10;;;;;;;-6.36;68.91;99921.81;2279682;78;21425;-84
2022/03/02 06:21:24;;;;;;;164.03;63.50;;;;;;;-6.14;68.87;99923.45;2279077;78;20930;-83
2022/03/02 06:24:25;;;;;;;150.23;62.13;;;;;;;-5.96;68.73;99916.30;2278539;78;20926;-83
2022/03/02 06:27:25;;;;;;;255.13;76.37;;;;;;;-5.72;68.90;99923.09;2278816;78;20961;-81
2022/03/02 06:30:26;;;;;;;210.60;76.30;;;;;;;-5.56;68.68;99919.94;2279004;78;21410;-82
2022/03/02 06:33:26;;;;;;;181.17;73.50;;;;;;;-5.32;68.79;99913.25;2278245;78;21369;-82
2022/03/02 06:36:27;;;;;;;214.90;85.60;;;;;;;-5.07;68.74;99912.56;2278394;78;21435;-82
2022/03/02 06:39:28;;;;;;;225.87;90.17;;;;;;;-4.82;69.01;99909.27;2278538;78;21368;-82
2022/03/02 06:42:28;;;;;;;248.93;101.53;;;;;;;-4.55;68.67;99908.25;2278629;78;20942;-82
2022/03/02 06:45:29;;;;;;;232.87;98.57;;;;;;;-4.27;69.04;99906.09;2279171;78;21004;-83
2022/03/02 06:48:32;;;;;;;304.73;125.40;;;;;;;-3.93;69.23;99907.70;2280279;78;21067;-83
2022/03/02 06:51:33;;;;;;;260.23;111.17;;;;;;;-3.66;68.42;99903.64;2287881;78;21003;-83
2022/03/02 06:54:33;;;;;;;234.83;105.97;;;;;;;-3.32;68.99;99903.55;2287666;78;20952;-83
2022/03/02 06:57:34;;;;;;;281.20;99.33;;;;;;;-3.02;68.19;99904.27;2288253;78;20971;-82
2022/03/02 07:00:34;;;;;;;188.90;84.53;;;;;;;-2.78;67.37;99897.70;2288456;78;21023;-82
2022/03/02 07:03:35;;;;;;;193.57;84.53;;;;;;;-2.60;66.87;99889.87;2288149;78;21608;-83
2022/03/02 07:06:36;;;;;;;167.63;74.90;;;;;;;-2.32;66.54;99881.44;2288775;78;20991;-83
2022/03/02 07:09:36;;;;;;;195.37;75.40;;;;;;;-2.13;66.02;99885.04;2289476;78;20968;-82
2022/03/02 07:12:37;;;;;;;269.73;87.23;;;;;;;-1.96;65.52;99884.67;2289638;78;21046;-79
2022/03/02 07:15:38;;;;;;;159.70;72.93;;;;;;;-1.70;65.28;99889.66;2288700;78;21055;-82
2022/03/02 07:18:39;;;;;;;156.87;69.07;;;;;;;-1.49;64.66;99885.27;2287273;78;21086;-81
2022/03/02 07:21:40;;;;;;;149.73;67.83;;;;;;;-1.34;64.09;99887.69;2287729;78;20983;-80
2022/03/02 07:24:41;;;;;;;145.47;67.03;;;;;;;-1.25;64.02;99886.20;2287640;78;21390;-82
2022/03/02 07:27:41;;;;;;;119.90;55.13;;;;;;;-1.11;63.94;99880.43;2287745;78;20940;-82
2022/03/02 07:30:42;;;;;;;106.07;46.37;;;;;;;-0.96;63.65;99874.76;2287571;78;21051;-79
2022/03/02 07:33:43;;;;;;;91.93;43.30;;;;;;;-0.87;63.19;99873.25;2288175;78;21711;-80
2022/03/02 07:36:44;;;;;;;101.83;46.03;;;;;;;-0.76;62.96;99871.11;2288482;78;20992;-82
2022/03/02 07:39:45;;;;;;;97.27;45.10;;;;;;;-0.56;62.75;99876.78;2288415;78;21390;-82
2022/03/02 07:42:45;;;;;;;84.53;42.73;;;;;;;-0.44;62.65;99865.72;2288661;78;20975;-80
2022/03/02 07:45:46;;;;;;;87.23;43.70;;;;;;;-0.30;62.55;99864.13;2289085;78;20951;-80
2022/03/02 07:48:47;;;;;;;99.73;49.20;;;;;;;-0.14;62.39;99863.14;2285780;78;21009;-80
2022/03/02 07:51:48;;;;;;;114.37;58.60;;;;;;;0.04;62.19;99857.14;2278877;78;21006;-80
2022/03/02 07:54:49;;;;;;;87.10;42.80;;;;;;;0.20;61.88;99857.41;2278766;78;20992;-80
2022/03/02 07:57:49;;;;;;;86.63;42.50;;;;;;;0.36;61.79;99856.77;2278245;78;20965;-79
2022/03/02 08:00:50;;;;;;;90.47;39.83;;;;;;;0.52;61.77;99860.87;2276283;78;21049;-80
2022/03/02 08:03:52;;;;;;;70.70;37.30;;;;;;;0.71;61.41;99857.84;2276462;78;20954;-79
2022/03/02 08:06:52;;;;;;;77.53;37.73;;;;;;;0.92;61.24;99857.13;2276245;78;21200;-80
2022/03/02 08:09:53;;;;;;;69.27;36.00;;;;;;;1.15;61.04;99854.36;2277880;78;21068;-80
2022/03/02 08:12:53;;;;;;;62.50;33.33;;;;;;;1.30;60.49;99845.85;2277596;78;21032;-79
2022/03/02 08:15:54;;;;;;;62.33;30.07;;;;;;;1.47;60.22;99837.12;2277966;78;20962;-80
2022/03/02 08:18:54;;;;;;;59.23;29.80;;;;;;;1.66;59.55;99828.88;2278439;78;20954;-79
2022/03/02 08:21:55;;;;;;;75.10;27.93;;;;;;;1.90;59.82;99834.69;2278287;78;20926;-78
2022/03/02 08:24:55;;;;;;;63.70;26.10;;;;;;;2.11;57.57;99826.09;2277404;78;20957;-82
2022/03/02 08:27:57;;;;;;;44.43;25.33;;;;;;;2.24;56.96;99823.05;2279044;78;21336;-81
2022/03/02 08:30:58;;;;;;;43.70;23.43;;;;;;;2.33;55.63;99826.58;2279841;78;21424;-80
2022/03/02 08:33:58;;;;;;;42.80;24.13;;;;;;;2.34;55.46;99821.03;2279822;78;21001;-79
2022/03/02 08:36:59;;;;;;;45.20;25.40;;;;;;;2.38;55.18;99820.02;2279157;78;21302;-80
2022/03/02 08:40:00;;;;;;;54.43;26.33;;;;;;;2.49;54.46;99820.25;2279408;78;21324;-80
2022/03/02 08:43:01;;;;;;;41.77;22.77;;;;;;;2.63;54.86;99816.33;2279601;78;21745;-81
2022/03/02 08:46:01;;;;;;;48.73;24.30;;;;;;;2.73;54.03;99813.09;2278031;78;21029;-79
2022/03/02 08:49:02;;;;;;;50.77;25.27;;;;;;;2.91;54.11;99811.08;2278475;78;21412;-80
2022/03/02 08:52:03;;;;;;;40.00;23.23;;;;;;;2.95;51.88;99807.47;2278877;78;21360;-80
2022/03/02 08:55:04;;;;;;;49.20;21.70;;;;;;;3.01;52.84;99804.35;2279841;78;21361;-81
2022/03/02 08:58:05;;;;;;;37.63;19.70;;;;;;;3.07;51.67;99791.80;2278876;78;21413;-81
2022/03/02 09:01:06;;;;;;;36.00;19.77;;;;;;;3.14;51.08;99796.09;2278763;78;21048;-81
2022/03/02 09:04:06;;;;;;;32.03;18.87;;;;;;;3.18;50.59;99789.02;2278905;78;20965;-80
2022/03/02 09:07:08;;;;;;;25.10;15.10;;;;;;;3.26;51.46;99786.86;2278548;78;21408;-80
2022/03/02 09:10:09;;;;;;;25.23;14.77;;;;;;;3.43;49.44;99777.06;2279101;78;20960;-80
2022/03/02 09:13:09;;;;;;;27.73;15.27;;;;;;;3.60;49.21;99775.83;2277977;78;21040;-80
2022/03/02 09:16:10;;;;;;;29.80;16.97;;;;;;;3.69;49.19;99775.92;2278861;78;21392;-81
2022/03/02 09:19:11;;;;;;;20.20;13.90;;;;;;;3.77;49.79;99772.05;2279080;78;20949;-81
2022/03/02 09:22:11;;;;;;;23.93;14.37;;;;;;;3.78;48.29;99769.95;2278907;78;20957;-82
2022/03/02 09:25:12;;;;;;;23.23;14.97;;;;;;;3.80;49.12;99767.05;2278649;78;20989;-82
2022/03/02 09:28:12;;;;;;;21.57;14.57;;;;;;;4.02;49.25;99759.14;2279056;78;20977;-81
2022/03/02 09:31:14;;;;;;;19.53;13.13;;;;;;;4.25;48.32;99757.73;2279369;78;21013;-81
2022/03/02 09:34:14;;;;;;;18.53;11.50;;;;;;;4.25;47.95;99759.92;2278991;78;21440;-80
2022/03/02 09:37:15;;;;;;;20.27;11.63;;;;;;;4.34;47.07;99751.38;2279078;78;20962;-80
2022/03/02 09:40:15;;;;;;;14.80;9.50;;;;;;;4.42;46.20;99754.34;2278861;78;20992;-81
2022/03/02 09:43:16;;;;;;;56.87;10.87;;;;;;;4.50;45.69;99749.56;2278961;78;21380;-80
2022/03/02 09:46:16;;;;;;;19.03;10.60;;;;;;;4.54;43.65;99744.62;2278967;78;21385;-81
2022/03/02 09:49:17;;;;;;;466.30;32.70;;;;;;;4.64;45.08;99746.84;2281015;78;21015;-79
2022/03/02 09:52:19;;;;;;;24.13;9.83;;;;;;;4.74;45.06;99743.02;2289899;78;21299;-82
2022/03/02 09:55:23;;;;;;;14.93;8.80;;;;;;;4.79;43.79;99745.42;2288975;78;21016;-82
2022/03/02 09:58:23;;;;;;;9.63;7.70;;;;;;;4.90;44.41;99735.19;2289707;78;21016;-80
2022/03/02 10:01:24;;;;;;;12.00;8.23;;;;;;;5.07;44.55;99727.82;2288833;78;20979;-80
2022/03/02 10:04:24;;;;;;;12.90;7.73;;;;;;;5.21;44.46;99722.03;2287567;78;20939;-81
2022/03/02 10:07:28;;;;;;;75.73;11.53;;;;;;;5.40;42.68;99725.06;2288307;78;20995;-81
2022/03/02 10:10:31;;;;;;;20.57;9.67;;;;;;;5.47;43.48;99718.05;2288160;78;21447;-82
2022/03/02 10:13:31;;;;;;;40.77;9.23;;;;;;;5.46;42.92;99713.70;2288430;78;21055;-80
2022/03/02 10:16:34;;;;;;;21.67;9.30;;;;;;;5.49;43.25;99709.06;2288158;78;20996;-80
2022/03/02 10:19:35;;;;;;;12.97;8.93;;;;;;;5.52;41.66;99699.73;2288316;78;20920;-81
2022/03/02 10:22:35;;;;;;;12.00;9.17;;;;;;;5.55;42.85;99699.88;2288011;78;21417;-81
2022/03/02 10:25:36;;;;;;;15.80;8.63;;;;;;;5.50;40.89;99700.48;2289094;78;20971;-81
2022/03/02 10:28:39;;;;;;;11.37;7.87;;;;;;;5.40;41.75;99692.70;2288013;78;20995;-80
2022/03/02 10:31:44;;;;;;;12.47;8.10;;;;;;;5.53;41.71;99695.03;2288209;78;21073;-81
2022/03/02 10:34:44;;;;;;;12.68;8.30;;;;;;;5.66;41.56;99687.40;2287520;78;21088;-80
2022/03/02 10:37:45;;;;;;;80.97;11.70;;;;;;;5.65;41.61;99677.45;2287653;78;21003;-80
2022/03/02 10:40:45;;;;;;;16.73;10.03;;;;;;;5.71;41.91;99672.53;2288859;78;20979;-81
2022/03/02 10:46:48;;;;;;;15.27;8.60;;;;;;;5.97;40.39;99666.34;2264222;78;20967;-80
2022/03/02 10:49:50;;;;;;;194.73;20.37;;;;;;;6.03;40.59;99664.01;2284125;78;20973;-81
2022/03/02 10:52:50;;;;;;;13.20;9.27;;;;;;;5.89;40.67;99662.12;2278020;78;21115;-80
2022/03/02 10:55:51;;;;;;;15.30;9.80;;;;;;;5.91;40.87;99654.01;2277687;78;21044;-80
2022/03/02 10:58:51;;;;;;;43.63;10.60;;;;;;;5.97;39.89;99645.61;2277226;78;21032;-80
2022/03/02 11:01:52;;;;;;;12.87;9.90;;;;;;;5.83;40.31;99645.39;2276548;78;21103;-80
2022/03/02 11:04:56;;;;;;;13.20;9.23;;;;;;;5.85;40.25;99635.98;2277528;78;20988;-80
2022/03/02 11:07:57;;;;;;;16.33;9.40;;;;;;;5.83;40.67;99631.14;2277722;78;21035;-81
2022/03/02 11:10:58;;;;;;;18.30;10.73;;;;;;;5.73;39.93;99633.75;2277834;78;20964;-80
2022/03/02 11:13:58;;;;;;;13.17;9.00;;;;;;;5.69;40.21;99625.37;2278644;78;21032;-81
2022/03/02 11:16:59;;;;;;;14.07;9.47;;;;;;;5.59;39.41;99620.20;2278584;78;20934;-81
2022/03/02 11:19:59;;;;;;;18.80;11.33;;;;;;;5.52;39.61;99620.75;2277833;78;20981;-81
2022/03/02 11:26:04;;;;;;;13.90;9.83;;;;;;;5.62;39.56;99611.67;2257783;78;21013;-80
2022/03/02 11:29:04;;;;;;;13.07;9.30;;;;;;;5.66;39.67;99612.28;2278599;78;21691;-80
2022/03/02 11:32:05;;;;;;;15.10;9.57;;;;;;;5.75;40.49;99606.20;2278691;78;21013;-81
2022/03/02 11:35:08;;;;;;;37.00;9.57;;;;;;;5.95;40.68;99603.20;2279364;78;20984;-82
2022/03/02 11:38:08;;;;;;;14.47;9.47;;;;;;;6.14;39.72;99594.51;2278011;78;20977;-81
2022/03/02 11:41:09;;;;;;;15.00;9.53;;;;;;;6.16;39.19;99592.87;2278696;78;20962;-83
2022/03/02 11:44:09;;;;;;;21.17;8.93;;;;;;;6.04;37.25;99588.03;2278824;78;20970;-81
2022/03/02 11:47:10;;;;;;;16.70;8.73;;;;;;;5.95;37.59;99586.35;2278682;78;20966;-81
2022/03/02 11:50:11;;;;;;;12.27;8.37;;;;;;;5.95;38.83;99573.39;2281989;78;21050;-81
2022/03/02 11:53:14;;;;;;;14.17;8.40;;;;;;;5.95;38.73;99569.09;2288589;78;21043;-82
2022/03/02 11:56:15;;;;;;;17.40;8.57;;;;;;;6.00;37.88;99575.77;2289552;78;21018;-82
2022/03/02 11:59:16;;;;;;;16.63;8.47;;;;;;;5.96;37.67;99572.16;2289505;78;20952;-81
2022/03/02 12:02:17;;;;;;;17.50;9.47;;;;;;;5.96;35.86;99562.20;2289627;78;21015;-80
2022/03/02 12:05:18;;;;;;;14.60;7.73;;;;;;;5.95;35.58;99550.08;2288666;78;20952;-82
2022/03/02 12:08:19;;;;;;;10.63;7.80;;;;;;;5.99;35.96;99550.67;2287608;78;20991;-80
2022/03/02 12:11:21;;;;;;;13.37;7.83;;;;;;;5.94;36.30;99548.30;2287436;77;21014;-82
2022/03/02 12:14:22;;;;;;;10.33;8.07;;;;;;;5.83;35.37;99543.94;2287907;78;21463;-82
2022/03/02 12:17:22;;;;;;;11.00;8.47;;;;;;;5.83;36.20;99545.64;2287253;78;20971;-83
2022/03/02 12:20:23;;;;;;;192.83;19.60;;;;;;;5.93;36.64;99535.76;2288448;78;20932;-81
2022/03/02 12:23:23;;;;;;;10.97;8.33;;;;;;;6.02;37.33;99536.13;2288489;78;20963;-83
2022/03/02 12:26:24;;;;;;;11.03;7.80;;;;;;;6.15;36.78;99543.14;2287660;78;20970;-81
2022/03/02 12:29:26;;;;;;;13.60;8.50;;;;;;;6.11;36.96;99536.06;2286923;78;21701;-82
2022/03/02 12:32:26;;;;;;;111.17;11.50;;;;;;;6.14;37.16;99524.52;2287368;78;21055;-81
2022/03/02 12:35:27;;;;;;;14.93;9.20;;;;;;;6.27;37.41;99517.30;2287518;78;20948;-81
2022/03/02 12:38:27;;;;;;;12.27;8.33;;;;;;;6.33;36.40;99519.24;2264393;78;20916;-81
2022/03/02 12:41:28;;;;;;;12.13;8.63;;;;;;;6.19;36.94;99514.81;2287571;78;21016;-83
2022/03/02 12:44:29;;;;;;;9.73;8.13;;;;;;;6.10;36.72;99509.67;2287795;78;20923;-81
2022/03/02 12:47:30;;;;;;;16.23;8.93;;;;;;;6.01;37.17;99509.74;2287979;78;21455;-81
2022/03/02 12:50:32;;;;;;;13.63;8.90;;;;;;;5.99;35.81;99508.80;2283952;78;21040;-81
2022/03/02 12:53:33;;;;;;;13.87;8.13;;;;;;;5.93;36.24;99499.89;2277674;78;21002;-81
2022/03/02 12:56:34;;;;;;;12.10;7.53;;;;;;;5.92;36.07;99485.16;2277835;77;20981;-81
2022/03/02 12:59:34;;;;;;;12.47;8.73;;;;;;;5.89;34.70;99491.48;2277694;78;21357;-81
2022/03/02 13:02:35;;;;;;;12.80;8.53;;;;;;;5.88;35.18;99492.31;2277133;78;21472;-80
2022/03/02 13:05:35;;;;;;;12.17;9.07;;;;;;;5.89;36.01;99486.30;2276911;78;21369;-83
2022/03/02 13:08:37;;;;;;;157.57;14.80;;;;;;;5.88;36.31;99480.23;2277630;78;21416;-81
2022/03/02 13:11:37;;;;;;;19.20;9.30;;;;;;;5.88;36.75;99481.53;2277539;78;21066;-83
2022/03/02 13:14:38;;;;;;;13.10;9.00;;;;;;;5.94;37.82;99479.22;2277737;78;21475;-82
2022/03/02 13:17:39;;;;;;;15.37;9.33;;;;;;;6.03;37.35;99471.81;2277880;78;21285;-84
2022/03/02 13:20:39;;;;;;;15.90;11.63;;;;;;;6.00;37.77;99475.58;2277782;78;20977;-83
2022/03/02 13:23:40;;;;;;;17.60;12.00;;;;;;;5.88;37.26;99484.53;2277406;78;20930;-83
2022/03/02 13:26:40;;;;;;;17.07;11.50;;;;;;;5.78;38.48;99483.69;2277426;78;20934;-84
2022/03/02 13:29:41;;;;;;;14.97;10.50;;;;;;;5.65;38.53;99478.42;2276684;78;21373;-82
2022/03/02 13:32:41;;;;;;;40.90;12.40;;;;;;;5.51;38.52;99480.44;2276903;78;21067;-80
2022/03/02 13:35:42;;;;;;;14.53;11.00;;;;;;;5.48;38.76;99481.61;2277470;78;20970;-82
2022/03/02 13:38:43;;;;;;;26.80;12.23;;;;;;;5.44;38.22;99483.18;2278193;78;20997;-84
2022/03/02 13:41:43;;;;;;;16.70;11.53;;;;;;;5.38;38.98;99472.56;2278371;78;20934;-82
2022/03/02 13:44:44;;;;;;;21.57;12.77;;;;;;;5.43;39.43;99467.58;2277495;78;21016;-84
2022/03/02 13:47:44;;;;;;;43.37;12.23;;;;;;;5.40;38.83;99467.45;2277632;78;20946;-83
2022/03/02 13:50:45;;;;;;;20.93;12.03;;;;;;;5.31;39.38;99465.77;2265889;77;22023;-82
2022/03/02 13:53:46;;;;;;;21.17;12.03;;;;;;;5.32;39.81;99459.36;2245400;79;21784;-83
2022/03/02 13:56:48;;;;;;;18.87;12.37;;;;;;;5.35;39.85;99461.20;2245973;79;20984;-84
2022/03/02 13:59:49;;;;;;;18.63;11.50;;;;;;;5.28;39.30;99465.64;2245642;79;20988;-82